Hlavní strana
METAR-TAF:

METAR-TAF

Letiště :

Letiště Ankara-Esenboğa

Ankara Esenboğa, Turecko

zeměpisná šířka: 40-07N, zeměpisná délka: 032-59E, výška: 953 m

Aktuální stav počasí

Zpráva byla vytvořena před 24 minutami, v 13:20 UTC
Severovýchodní vítr 13 kt, proměnlivý mezi severním a východním
Teplota 20°C
Vlhkost vzduchu 26%
Tlak 1018 hPa
Viditelnost 10 km a více
Polojasno ve výšce 4000 ft

METAR: LTAC 141320Z 04013KT 010V080 9999 SCT040 20/M00 Q1018 NOSIG RMK RWY21L 03013KT 330V070 RWY03L 04014KT RWY21R 01013KT 340V050

Čas: 16:44 (13:44 UTC)

Předpověď počasí

Zpráva byla vytvořena před 3 hodinami a 4 minutami, v 10:40 UTC
Předpověď platná od 14 v 12 UTC do 15 v 12 UTC
Severoseverovýchodní vítr 12 kt
Viditelnost 10 km a více
Polojasno ve výšce 4000 ft
Změna
od 14 v 15 UTC do 14 v 19 UTC
vítr z různých směrů 2 kt
Viditelnost 10 km a více
Žádná oblačnost pod 1500 m, nevyskytují se cumulonimby.

TAF: LTAC 141040Z 1412/1512 02012KT 9999 SCT040 BECMG 1415/1419 VRB02KT CAVOK

Stav a předpovědi počasí z více než 4 000 letišť (zprávy METAR a TAF).

Červené a žluté tečky na mapě představují dostupné meteorologické stanice.

Když kurzor umístíte na tečku, zobrazí se název stanice.

Pak kliknutím zobrazíte stav a předpověď počasí.

Chcete-li změnit mapu, kliknutím na zelené tlačítko se znaménkem +mapu přiblížíte, kliknutím na zelené tlačítko se znaménkem – mapu oddálíte a kliknutím na zelené šipky přejdete na sousední mapy.


METAR-TAF: